Latest Weather Observations for Mildura

IDV60801

Issued at 1:12 pm EDT Friday 21 January 2022 (issued every 10 minutes, with the page automatically refreshed every 10 minutes)

About weather observations | Map of weather stations | Latest weather observations for VIC | Other Formats
Station Details ID: 076031 Name: MILDURA AIRPORT Lat: -34.24 Lon: 142.09 Height: 50.0 m
Data from the previous 72 hours. | See also: Recent months at Mildura
Date/Time
EDT
Temp
°C
App
Temp
°C
Dew
Point
°C
Rel
Hum
%
Delta-T
°C
Wind Press
QNH
hPa
Press
MSL
hPa
Rain since
9am
mm
Dir  Spd
km/h
Gust
km/h
Spd
kts
Gust
kts
21/01:00pm 30.9 26.9 9.2 26 12.1 ENE 20 32 11 17 1021.5 1021.2 0.0
21/12:30pm 30.5 26.0 9.9 28 11.7 NE 24 35 13 19 1021.9 1021.6 0.0
21/12:00pm 29.2 24.7 9.9 30 10.8 E 24 33 13 18 1022.3 1022.0 0.0
21/11:30am 27.7 23.1 9.5 32 10.1 ENE 24 35 13 19 1022.5 1022.2 0.0
21/11:00am 27.4 22.8 9.7 33 9.8 ENE 24 33 13 18 1022.8 1022.5 0.0
21/10:30am 26.5 21.6 9.8 35 9.3 ENE 26 37 14 20 1022.9 1022.6 0.0
21/10:00am 25.7 20.2 9.1 35 9.0 ENE 28 41 15 22 1022.9 1022.6 0.0
21/09:30am 24.9 19.1 9.6 38 8.4 ENE 30 43 16 23 1023.0 1022.7 0.0
21/09:00am 24.2 19.6 9.8 40 7.9 ENE 24 35 13 19 1023.0 1022.7 0.0
21/08:30am 23.4 19.2 9.8 42 7.4 ENE 22 35 12 19 1022.5 1022.2 0.0
21/08:00am 22.5 18.4 10.0 45 6.8 ENE 22 33 12 18 1022.4 1022.1 0.0
21/07:30am 21.9 18.3 10.4 48 6.3 ENE 20 28 11 15 1022.2 1021.9 0.0
21/07:00am 21.4 18.1 10.9 51 5.8 ENE 19 26 10 14 1022.0 1021.7 0.0
21/06:30am 21.3 18.3 10.8 51 5.8 ENE 17 22 9 12 1021.6 1021.3 0.0
21/06:00am 21.3 18.3 10.8 51 5.8 E 17 22 9 12 1021.4 1021.1 0.0
21/05:30am 21.7 19.1 10.8 50 6.0 E 15 22 8 12 1021.2 1020.9 0.0
21/05:00am 22.1 19.6 10.9 49 6.2 E 15 20 8 11 1020.9 1020.6 0.0
21/04:30am 22.5 19.5 10.6 47 6.6 E 17 22 9 12 1020.8 1020.5 0.0
21/04:00am 22.9 19.5 10.7 46 6.7 E 19 28 10 15 1020.8 1020.5 0.0
21/03:30am 23.5 20.0 10.9 45 7.0 E 20 33 11 18 1020.9 1020.6 0.0
21/03:00am 23.9 20.3 10.6 43 7.4 E 20 30 11 16 1020.9 1020.6 0.0
21/02:30am 24.2 20.7 10.1 41 7.8 E 19 28 10 15 1020.9 1020.6 0.0
21/02:00am 24.6 20.8 9.7 39 8.1 E 20 30 11 16 1020.9 1020.6 0.0
21/01:30am 25.0 21.6 9.3 37 8.6 E 17 26 9 14 1021.1 1020.8 0.0
21/01:00am 25.4 21.9 8.8 35 9.0 E 17 28 9 15 1021.2 1020.9 0.0
21/12:30am 25.8 21.7 8.8 34 9.2 E 20 32 11 17 1021.0 1020.7 0.0
21/12:00am 26.3 22.2 8.8 33 9.5 E 20 33 11 18 1020.7 1020.4 0.0
 
Date/Time
EDT
Temp
°C
App
Temp
°C
Dew
Point
°C
Rel
Hum
%
Delta-T
°C
Wind Press
QNH
hPa
Press
MSL
hPa
Rain since
9am
mm
Dir  Spd
km/h
Gust
km/h
Spd
kts
Gust
kts
20/11:30pm 26.4 22.4 8.4 32 9.7 E 19 26 10 14 1020.6 1020.3 0.0
20/11:00pm 26.9 22.6 7.9 30 10.2 ESE 20 30 11 16 1020.4 1020.1 0.0
20/10:30pm 27.2 22.6 8.1 30 10.3 ESE 22 32 12 17 1020.1 1019.8 0.0
20/10:00pm 27.8 23.6 8.1 29 10.7 ESE 20 32 11 17 1019.9 1019.6 0.0
20/09:30pm 28.4 23.8 8.1 28 11.1 ESE 22 32 12 17 1019.6 1019.3 0.0
20/09:00pm 28.9 23.9 8.0 27 11.4 ESE 24 35 13 19 1019.3 1019.0 0.0
20/08:30pm 29.8 25.6 8.2 26 11.9 ESE 20 30 11 16 1018.9 1018.6 0.0
20/08:00pm 30.9 25.7 7.4 23 12.8 E 24 37 13 20 1018.6 1018.3 0.0
20/07:30pm 31.8 27.2 8.1 23 13.1 ESE 22 35 12 19 1018.4 1018.1 0.0
20/07:00pm 32.2 26.2 7.1 21 13.7 E 28 39 15 21 1018.1 1017.8 0.0
20/06:30pm 32.8 27.5 6.9 20 14.1 E 24 39 13 21 1017.9 1017.6 0.0
20/06:00pm 32.7 26.6 6.8 20 14.1 E 28 39 15 21 1018.1 1017.8 0.0
20/05:30pm 33.6 28.1 7.6 20 14.4 E 26 37 14 20 1018.1 1017.8 0.0
20/05:00pm 33.4 28.0 8.1 21 14.1 E 26 43 14 23 1018.4 1018.1 0.0
20/04:30pm 32.9 27.1 6.2 19 14.4 ENE 26 41 14 22 1018.7 1018.4 0.0
20/04:00pm 33.0 27.6 7.8 21 13.9 E 26 37 14 20 1019.1 1018.8 0.0
20/03:30pm 32.6 27.1 7.4 21 13.9 ENE 26 39 14 21 1019.4 1019.1 0.0
20/03:21pm 32.1 26.1 7.0 21 13.7 E 28 46 15 25 1019.5 1019.2 0.0
20/03:00pm 31.8 25.9 7.5 22 13.3 E 28 39 15 21 1019.8 1019.5 0.0
20/02:30pm 31.4 25.4 7.1 22 13.2 E 28 41 15 22 1020.2 1019.9 0.0
20/02:00pm 31.1 25.9 8.8 25 12.4 ENE 26 44 14 24 1020.7 1020.4 0.0
20/01:30pm 29.7 24.6 7.6 25 12.0 ENE 24 39 13 21 1021.1 1020.8 0.0
20/01:00pm 29.9 24.5 7.8 25 12.0 E 26 41 14 22 1021.4 1021.1 0.0
20/12:30pm 28.2 22.0 8.0 28 11.0 ENE 30 41 16 22 1021.8 1021.5 0.0
20/12:00pm 27.2 22.3 8.6 31 10.1 E 24 39 13 21 1022.2 1021.9 0.0
20/11:30am 26.9 22.1 8.8 32 9.9 E 24 41 13 22 1022.6 1022.3 0.0
20/11:00am 25.8 21.5 9.2 35 9.0 E 22 37 12 20 1022.8 1022.5 0.0
20/10:30am 25.0 19.9 9.3 37 8.6 E 26 39 14 21 1022.9 1022.6 0.0
20/10:00am 24.4 19.8 9.6 39 8.1 ENE 24 32 13 17 1022.9 1022.6 0.0
20/09:30am 23.5 18.5 9.5 41 7.6 ENE 26 37 14 20 1023.0 1022.7 0.0
20/09:00am 22.5 17.4 9.3 43 7.1 E 26 37 14 20 1023.0 1022.7 0.0
20/08:30am 21.9 18.0 9.4 45 6.7 E 20 35 11 19 1022.7 1022.4 0.0
20/08:00am 21.2 17.2 9.1 46 6.4 E 20 28 11 15 1022.5 1022.2 0.0
20/07:30am 20.6 17.6 9.2 48 6.1 E 15 24 8 13 1022.5 1022.2 0.0
20/07:00am 19.8 17.6 9.4 51 5.5 E 11 22 6 12 1022.2 1021.9 0.0
20/06:30am 20.4 16.5 9.6 50 5.8 ENE 20 32 11 17 1021.7 1021.4 0.0
20/06:00am 20.8 17.6 11.2 54 5.3 E 19 28 10 15 1021.3 1021.0 0.0
20/05:30am 21.5 18.9 12.1 55 5.3 E 17 30 9 16 1020.8 1020.5 0.0
20/05:00am 22.4 19.5 12.9 55 5.4 ENE 20 30 11 16 1020.4 1020.1 0.0
20/04:30am 23.0 20.5 13.5 55 5.5 ENE 19 28 10 15 1020.2 1019.9 0.0
20/04:00am 23.6 21.2 13.8 54 5.7 ENE 19 28 10 15 1019.6 1019.3 0.0
20/03:30am 23.7 21.9 14.4 56 5.5 ENE 17 28 9 15 1019.6 1019.3 0.0
20/03:00am 23.7 23.2 14.9 57 5.2 ENE 11 17 6 9 1019.3 1019.0 0.0
20/02:30am 23.8 23.7 15.0 57 5.3 ENE 9 13 5 7 1019.4 1019.1 0.0
20/02:00am 24.6 24.5 15.0 55 5.7 ENE 9 17 5 9 1019.2 1018.9 0.0
20/01:30am 25.5 24.2 14.9 52 6.4 ENE 15 20 8 11 1019.1 1018.8 0.0
20/01:00am 25.9 23.8 14.7 50 6.7 NE 19 24 10 13 1019.1 1018.8 0.0
20/12:30am 25.9 25.7 14.7 50 6.7 ENE 9 15 5 8 1018.9 1018.6 0.0
20/12:00am 26.5 25.6 14.9 49 7.0 ENE 13 19 7 10 1018.7 1018.4 0.0
 
Date/Time
EDT
Temp
°C
App
Temp
°C
Dew
Point
°C
Rel
Hum
%
Delta-T
°C
Wind Press
QNH
hPa
Press
MSL
hPa
Rain since
9am
mm
Dir  Spd
km/h
Gust
km/h
Spd
kts
Gust
kts
19/11:30pm 27.1 25.7 14.5 46 7.6 ENE 15 20 8 11 1018.4 1018.1 0.0
19/11:00pm 27.8 25.7 14.8 45 7.9 ENE 19 28 10 15 1018.2 1017.9 0.0
19/10:30pm 28.3 25.9 14.5 43 8.3 ENE 20 28 11 15 1017.7 1017.4 0.0
19/10:00pm 28.5 26.8 14.7 43 8.4 ENE 17 26 9 14 1017.1 1016.9 0.0
19/09:30pm 27.9 27.9 17.1 51 6.8 NE 13 19 7 10 1016.6 1016.4 0.0
19/09:00pm 28.2 27.9 17.4 52 6.8 NE 15 20 8 11 1016.1 1015.9 0.0
19/08:30pm 29.0 26.8 16.9 48 7.6 NE 24 33 13 18 1015.7 1015.5 0.0
19/08:15pm 29.9 27.1 16.3 43 8.5 ENE 26 44 14 24 1015.3 1015.1 0.0
19/08:00pm 28.7 29.2 16.6 48 7.6 SSE 9 17 5 9 1015.1 1014.9 0.0
19/07:30pm 28.3 26.5 16.9 50 7.1 SE 22 35 12 19 1014.8 1014.6 0.0
19/07:00pm 32.5 30.4 14.6 34 11.0 ENE 19 28 10 15 1014.2 1014.0 0.0
19/06:30pm 32.3 30.3 14.0 33 11.1 ENE 17 28 9 15 1014.0 1013.8 0.0
19/06:00pm 32.4 29.7 13.6 32 11.4 ENE 20 28 11 15 1014.0 1013.8 0.0
19/05:30pm 32.5 30.6 14.1 32 11.2 E 17 28 9 15 1014.1 1013.9 0.0
19/05:00pm 32.5 30.2 11.6 28 12.3 E 15 22 8 12 1014.2 1014.0 0.0
19/04:30pm 32.5 29.8 10.5 26 12.7 ESE 15 26 8 14 1014.6 1014.4 0.0
19/04:00pm 32.4 28.4 10.4 26 12.7 ESE 22 32 12 17 1014.7 1014.5 0.0
19/03:30pm 32.2 28.2 9.1 24 13.0 ESE 20 32 11 17 1014.9 1014.7 0.0
19/03:00pm 32.4 28.3 8.0 22 13.5 SE 19 30 10 16 1015.1 1014.9 0.0
19/02:30pm 31.3 26.7 6.4 21 13.4 SE 20 33 11 18 1015.2 1015.0 0.0
19/02:00pm 30.5 26.2 7.0 23 12.7 SSE 19 26 10 14 1015.6 1015.4 0.0
19/01:30pm 30.5 26.2 7.7 24 12.5 SE 20 24 11 13 1015.9 1015.7 0.0
19/01:00pm 28.8 24.7 8.5 28 11.1 SE 20 32 11 17 1016.4 1016.2 0.0
19/12:30pm 27.5 23.7 8.9 31 10.2 SE 19 28 10 15 1016.6 1016.4 0.0
19/12:00pm 26.2 22.4 9.1 34 9.3 SE 19 26 10 14 1016.8 1016.6 0.0
19/11:30am 24.6 21.6 9.3 38 8.3 SE 15 22 8 12 1017.0 1016.8 0.0
19/11:00am 23.0 19.8 9.8 43 7.2 SE 17 26 9 14 1017.1 1016.9 0.0
19/10:30am 22.3 19.0 9.5 44 6.9 SE 17 28 9 15 1017.1 1016.9 0.0
19/10:00am 20.1 16.2 8.8 48 5.9 SSE 19 26 10 14 1017.2 1017.0 0.0
19/09:30am 19.5 15.9 8.5 49 5.7 SE 17 22 9 12 1017.3 1017.1 0.0
19/09:00am 18.1 14.4 8.1 52 5.1 SSE 17 24 9 13 1017.3 1017.1 0.0
19/08:30am 17.0 12.6 7.6 54 4.7 SE 20 30 11 16 1017.0 1016.8 0.0
19/08:00am 16.8 12.7 7.7 55 4.6 SSE 19 28 10 15 1016.7 1016.5 0.0
19/07:30am 16.0 11.8 7.5 57 4.2 SSE 19 30 10 16 1016.4 1016.2 0.0
19/07:00am 15.5 11.3 7.5 59 4.0 SSE 19 28 10 15 1015.9 1015.7 0.0
19/06:30am 15.8 11.4 7.6 58 4.1 SSE 20 32 11 17 1015.6 1015.4 0.0
19/06:00am 16.1 12.2 7.3 56 4.4 SSE 17 26 9 14 1015.4 1015.2 0.0
19/05:30am 16.6 12.2 7.5 55 4.6 SSE 20 33 11 18 1015.1 1014.9 0.0
19/05:00am 17.0 12.6 7.6 54 4.7 SSE 20 30 11 16 1014.9 1014.7 0.0
19/04:30am 17.6 12.5 7.6 52 5.1 SSE 24 33 13 18 1014.7 1014.5 0.0
19/04:00am 18.3 14.0 7.7 50 5.4 SSE 20 41 11 22 1014.6 1014.4 0.0
19/03:30am 19.0 14.9 7.8 48 5.7 SSE 19 28 10 15 1014.3 1014.1 0.0
19/03:00am 19.5 15.2 7.9 47 6.0 SSE 20 32 11 17 1014.1 1013.9 0.0
19/02:30am 20.0 15.3 7.7 45 6.3 SE 22 39 12 21 1014.0 1013.8 0.0
19/02:00am 20.4 15.6 7.4 43 6.7 SSE 22 37 12 20 1014.1 1013.9 0.0
19/01:30am 21.3 17.1 7.5 41 7.1 SSE 19 32 10 17 1014.0 1013.8 0.0
19/01:00am 22.2 16.2 7.2 38 7.8 SSE 28 43 15 23 1013.7 1013.5 0.0
19/12:30am 23.3 18.3 6.6 34 8.6 SSE 22 32 12 17 1013.4 1013.2 0.0
19/12:00am 23.6 18.8 5.5 31 9.2 S 20 30 11 16 1013.2 1013.0 0.0
 
Date/Time
EDT
Temp
°C
App
Temp
°C
Dew
Point
°C
Rel
Hum
%
Delta-T
°C
Wind Press
QNH
hPa
Press
MSL
hPa
Rain since
9am
mm
Dir  Spd
km/h
Gust
km/h
Spd
kts
Gust
kts
18/11:30pm 24.4 19.4 3.7 26 10.2 S 19 28 10 15 1013.2 1013.0 0.0
18/11:00pm 24.9 21.1 1.7 22 11.0 S 11 17 6 9 1012.9 1012.7 0.0
18/10:30pm 25.9 22.0 1.2 20 11.7 SSE 11 19 6 10 1012.8 1012.6 0.0
18/10:00pm 26.2 22.0 1.5 20 11.8 SSE 13 19 7 10 1012.7 1012.5 0.0
18/09:30pm 26.5 22.3 1.7 20 11.9 S 13 22 7 12 1012.6 1012.4 0.0
18/09:00pm 26.9 23.3 2.7 21 11.9 S 11 17 6 9 1012.6 1012.4 0.0
18/08:30pm 27.3 24.4 4.4 23 11.6 S 9 17 5 9 1012.3 1012.1 0.0
18/08:00pm 27.7 24.4 4.7 23 11.8 S 11 17 6 9 1011.6 1011.4 0.0
18/07:30pm 27.9 24.3 4.9 23 11.8 SSE 13 19 7 10 1011.0 1010.8 0.0
18/07:00pm 28.3 25.5 7.0 26 11.4 ESE 11 17 6 9 1011.4 1011.2 0.0
18/06:30pm 28.4 25.3 7.1 26 11.4 E 13 20 7 11 1011.6 1011.4 0.0
18/06:00pm 28.6 25.4 6.7 25 11.7 SE 13 19 7 10 1011.3 1011.1 0.0
18/05:30pm 28.5 25.1 6.0 24 11.8 SSE 13 22 7 12 1011.5 1011.3 0.0
18/05:00pm 28.6 25.4 6.7 25 11.7 S 13 22 7 12 1011.8 1011.6 0.0
18/04:30pm 28.7 25.7 7.9 27 11.3 ESE 13 22 7 12 1011.9 1011.7 0.0
18/04:00pm 28.1 25.0 7.4 27 11.1 ESE 13 19 7 10 1012.3 1012.1 0.0
18/03:30pm 28.0 24.6 7.8 28 10.9 ESE 15 20 8 11 1012.5 1012.3 0.0
18/03:00pm 26.6 23.2 7.6 30 10.2 SE 15 22 8 12 1012.8 1012.6 0.0
18/02:30pm 26.4 22.4 8.4 32 9.7 SE 19 26 10 14 1013.3 1013.1 0.0
18/02:00pm 26.0 21.9 8.5 33 9.5 SE 20 30 11 16 1013.4 1013.2 0.0
18/01:30pm 26.5 22.6 9.4 34 9.4 SE 20 28 11 15 1013.6 1013.4 0.0

Other formats

Comma delimited format used in spreadsheet applications
http://www.bom.gov.au/fwo/IDV60801/IDV60801.94693.axf

JavaScript Object Notation format (JSON) in row-major order
http://www.bom.gov.au/fwo/IDV60801/IDV60801.94693.json

Data quality

Most of these data are generated automatically and are frequently updated. Quality checks on data are not normally performed. It is possible for incorrect values to appear. Refer to information at About Latest Weather Observations and please check the disclaimer before using these data.